Time;durP1;ratioP1;P1;durP2;ratioP2;P2;SDS_P1;SDS_P2;PMS_P1;PMS_P2;Temp;Humidity;BMP_temperature;BMP_pressure;BME280_temperature;BME280_humidity;BME280_pressure;Samples;Min_cycle;Max_cycle;Signal;HPM_P1;HPM_P2
2020/12/01 14:25:10;;;;;;;3.87;1.37;;;16.50;76.20;;;;;;4763183;27;7764806;-60
2020/12/01 14:27:36;;;;;;;5.50;1.63;;;16.50;62.20;;;;;;5009965;28;20442;-60
2020/12/01 14:30:05;;;;;;;5.60;1.77;;;16.50;61.90;;;;;;5010092;28;20093;-60
2020/12/01 14:32:30;;;;;;;6.80;1.92;;;16.60;61.60;;;;;;5010189;28;20026;-60
2020/12/01 14:34:56;;;;;;;5.80;1.52;;;16.60;61.50;;;;;;5010326;28;20433;-60
2020/12/01 14:37:21;;;;;;;7.85;2.08;;;16.60;61.30;;;;;;5010233;28;20030;-60
2020/12/01 14:39:49;;;;;;;4.63;1.48;;;16.70;61.20;;;;;;5010295;28;20049;-60
2020/12/01 14:42:17;;;;;;;4.35;1.63;;;16.70;61.00;;;;;;5010118;28;20396;-60
2020/12/01 14:44:44;;;;;;;5.60;1.70;;;16.70;60.90;;;;;;5009846;28;20038;-60
2020/12/01 14:47:34;;;;;;;6.47;1.77;;;16.80;60.90;;;;;;5009922;28;20022;-60
2020/12/01 14:52:48;;;;;;;6.25;1.77;;;16.80;60.50;;;;;;5624320;22;20053;-64
2020/12/01 14:55:40;;;;;;;3.85;1.50;;;16.80;60.30;;;;;;4990086;28;20472;-64
2020/12/01 14:58:25;;;;;;;9.07;1.70;;;16.80;60.00;;;;;;4993938;28;20033;-64
2020/12/01 15:01:04;;;;;;;5.28;1.95;;;16.80;59.90;;;;;;4971791;28;20110;-64
2020/12/01 15:03:56;;;;;;;8.52;1.83;;;16.80;59.70;;;;;;4970670;28;20034;-64
2020/12/01 15:06:37;;;;;;;8.95;1.95;;;16.80;59.60;;;;;;4970678;28;20532;-70
2020/12/01 15:09:12;;;;;;;7.28;2.20;;;16.80;59.60;;;;;;4970526;28;20117;-63
2020/12/01 15:11:59;;;;;;;9.98;2.63;;;16.80;59.70;;;;;;4970663;28;20031;-62
2020/12/01 15:14:26;;;;;;;7.18;2.33;;;16.80;59.60;;;;;;4970787;28;20031;-63
2020/12/01 15:17:04;;;;;;;3.80;1.55;;;16.80;59.60;;;;;;4970770;28;20071;-66
2020/12/01 15:19:30;;;;;;;6.13;1.67;;;16.80;59.50;;;;;;4970475;28;20489;-67
2020/12/01 15:22:21;;;;;;;8.70;1.98;;;16.70;59.60;;;;;;4970502;28;20156;-65
2020/12/01 15:24:54;;;;;;;4.95;1.75;;;16.70;59.90;;;;;;4970403;28;20125;-66
2020/12/01 15:27:24;;;;;;;8.68;2.35;;;16.80;59.90;;;;;;4970193;28;20023;-67
2020/12/01 15:29:50;;;;;;;;;;;16.70;60.30;;;;;;4952865;28;20097;-66
2020/12/01 15:32:16;;;;;;;7.55;2.03;;;16.80;60.40;;;;;;4952810;28;20377;-65
2020/12/01 15:34:41;;;;;;;12.20;2.35;;;16.70;60.50;;;;;;4965710;28;20027;-64
2020/12/01 15:37:10;;;;;;;9.48;1.90;;;16.70;60.60;;;;;;4957112;29;20090;-64
2020/12/01 15:39:36;;;;;;;5.45;2.08;;;16.70;60.60;;;;;;4957270;29;20047;-65
2020/12/01 15:42:03;;;;;;;7.80;2.40;;;16.70;60.40;;;;;;4943993;29;20024;-65
2020/12/01 15:44:30;;;;;;;6.50;2.03;;;16.80;60.40;;;;;;4937855;29;20040;-65
2020/12/01 15:47:06;;;;;;;9.55;2.50;;;16.70;60.30;;;;;;4938044;29;20075;-65
2020/12/01 15:49:32;;;;;;;9.90;2.60;;;16.80;60.40;;;;;;4937815;29;20028;-65
2020/12/01 15:52:07;;;;;;;9.38;2.38;;;16.80;60.40;;;;;;4938531;28;20079;-65
2020/12/01 15:55:10;;;;;;;8.27;2.17;;;16.90;74.20;;;;;;4917827;29;20040;-65
2020/12/01 15:57:46;;;;;;;7.20;2.28;;;16.80;60.40;;;;;;4918850;29;20142;-65
2020/12/01 16:00:23;;;;;;;10.63;2.38;;;16.80;60.30;;;;;;4917365;29;20036;-66
2020/12/01 16:03:23;;;;;;;8.93;2.03;;;16.90;60.60;;;;;;4918850;29;20063;-66
2020/12/01 16:06:14;;;;;;;6.47;2.28;;;16.90;60.70;;;;;;4917995;29;20036;-69
2020/12/01 16:09:05;;;;;;;5.65;1.90;;;17.40;60.80;;;;;;4917893;29;20493;-66
2020/12/01 16:11:54;;;;;;;7.57;2.25;;;16.90;73.60;;;;;;4918243;29;20028;-64
2020/12/01 16:14:22;;;;;;;4.68;1.60;;;16.90;60.10;;;;;;4918341;29;20486;-66
2020/12/01 16:16:53;;;;;;;8.05;2.58;;;16.90;60.00;;;;;;4918247;29;20032;-66
2020/12/01 16:19:32;;;;;;;9.85;2.38;;;16.90;60.00;;;;;;4918347;29;20052;-66
2020/12/01 16:22:00;;;;;;;7.95;1.67;;;16.90;60.80;;;;;;4948833;29;20481;-70
2020/12/01 16:24:32;;;;;;;6.85;1.83;;;16.90;60.10;;;;;;4916773;29;20139;-64
2020/12/01 16:27:14;;;;;;;10.77;1.83;;;16.90;60.40;;;;;;4918191;29;20031;-63
2020/12/01 16:29:45;;;;;;;5.82;1.70;;;17.00;60.50;;;;;;4918400;29;20038;-63
2020/12/01 16:32:14;;;;;;;6.65;2.17;;;17.00;60.50;;;;;;4918375;29;20378;-63
2020/12/01 16:34:43;;;;;;;6.95;1.70;;;16.90;60.20;;;;;;4918331;29;20510;-64
2020/12/01 16:37:14;;;;;;;6.97;1.80;;;17.00;60.50;;;;;;4918364;29;20047;-64
2020/12/01 16:39:39;;;;;;;9.25;2.17;;;16.90;73.70;;;;;;4918213;29;20447;-65
2020/12/01 16:42:14;;;;;;;11.25;2.90;;;16.90;60.30;;;;;;4917838;29;20059;-64
2020/12/01 16:44:50;;;;;;;5.43;2.08;;;16.90;59.90;;;;;;4917950;29;20035;-64
2020/12/01 16:47:54;;;;;;;6.97;2.22;;;16.90;59.80;;;;;;4917084;29;20035;-64
2020/12/01 16:50:39;;;;;;;8.60;2.30;;;16.90;59.80;;;;;;4916512;29;20020;-63
2020/12/01 16:53:37;;;;;;;5.18;2.25;;;17.00;59.70;;;;;;4917492;28;20491;-64
2020/12/01 16:56:42;;;;;;;7.50;2.03;;;17.00;59.70;;;;;;4883521;29;20044;-63
2020/12/01 16:59:16;;;;;;;7.28;2.08;;;17.00;59.60;;;;;;4917301;29;20036;-64
2020/12/01 17:01:49;;;;;;;6.10;2.20;;;17.10;59.70;;;;;;4917620;29;20039;-63
2020/12/01 17:04:51;;;;;;;6.47;2.35;;;17.10;59.60;;;;;;4917741;29;20036;-63
2020/12/01 17:07:19;;;;;;;7.93;2.03;;;17.20;59.50;;;;;;4916152;29;20032;-63
2020/12/01 17:10:20;;;;;;;7.75;2.20;;;17.20;59.40;;;;;;4917345;29;20547;-63
2020/12/01 17:13:17;;;;;;;7.03;2.00;;;17.30;59.30;;;;;;4908848;29;20055;-63
2020/12/01 17:16:17;;;;;;;8.57;2.88;;;17.30;59.10;;;;;;4917270;29;20368;-64
2020/12/01 17:18:42;;;;;;;8.20;2.47;;;17.30;59.00;;;;;;4917295;29;20047;-63
2020/12/01 17:21:15;;;;;;;5.70;2.05;;;17.30;58.90;;;;;;4917400;29;20276;-64
2020/12/01 17:23:42;;;;;;;9.48;2.60;;;17.30;58.90;;;;;;4917246;29;20043;-63
2020/12/01 17:26:21;;;;;;;6.15;2.28;;;17.20;58.70;;;;;;4917111;29;20043;-63
2020/12/01 17:29:00;;;;;;;6.25;1.95;;;17.10;58.70;;;;;;4917365;29;20099;-63
2020/12/01 17:31:42;;;;;;;7.10;2.40;;;17.10;58.80;;;;;;4917087;29;20128;-64
2020/12/01 17:34:19;;;;;;;8.07;2.67;;;17.10;58.90;;;;;;4917292;29;20031;-64
2020/12/01 17:36:51;;;;;;;4.60;1.85;;;17.10;59.20;;;;;;4917292;29;20040;-64
2020/12/01 17:39:46;;;;;;;5.85;2.30;;;17.10;59.20;;;;;;4917005;29;20034;-64
2020/12/01 17:42:52;;;;;;;6.55;2.22;;;17.00;59.20;;;;;;4915587;29;20028;-64
2020/12/01 17:45:50;;;;;;;5.20;1.98;;;17.00;59.30;;;;;;4916805;29;20044;-64
2020/12/01 17:48:27;;;;;;;6.18;1.95;;;17.00;59.50;;;;;;4916802;29;20470;-63
2020/12/01 17:51:21;;;;;;;7.80;2.50;;;17.00;59.60;;;;;;4915402;29;20025;-63
2020/12/01 17:53:56;;;;;;;6.13;2.17;;;16.90;59.50;;;;;;4929859;28;20054;-65
2020/12/01 17:56:24;;;;;;;6.65;2.00;;;16.90;59.60;;;;;;4935922;29;20019;-65
2020/12/01 17:58:50;;;;;;;8.02;2.67;;;16.90;59.80;;;;;;4935271;29;20482;-64
2020/12/01 18:01:16;;;;;;;5.47;2.30;;;16.90;59.90;;;;;;4935596;29;20035;-64
2020/12/01 18:03:43;;;;;;;5.20;2.03;;;17.00;59.60;;;;;;4918174;29;20601;-63
2020/12/01 18:06:10;;;;;;;8.70;1.65;;;17.00;59.50;;;;;;4918304;29;20071;-63
2020/12/01 18:08:36;;;;;;;5.68;1.95;;;16.90;59.40;;;;;;4935636;29;20483;-64
2020/12/01 18:11:16;;;;;;;5.10;2.13;;;17.00;59.30;;;;;;4935638;29;20058;-63
2020/12/01 18:14:14;;;;;;;5.00;1.85;;;16.90;59.50;;;;;;4935501;29;20024;-64
2020/12/01 18:16:59;;;;;;;7.72;2.35;;;16.90;59.80;;;;;;4935336;29;20040;-64
2020/12/01 18:19:44;;;;;;;4.95;2.05;;;16.80;60.10;;;;;;4935544;29;20024;-64
2020/12/01 18:22:28;;;;;;;6.85;2.33;;;16.70;60.30;;;;;;4935315;29;20032;-64
2020/12/01 18:25:05;;;;;;;6.28;2.13;;;16.70;60.50;;;;;;4935052;29;20035;-63
2020/12/01 18:27:37;;;;;;;4.78;1.48;;;16.70;60.70;;;;;;4935217;29;20127;-63
2020/12/01 18:30:27;;;;;;;4.85;1.52;;;16.60;60.70;;;;;;4935399;29;20024;-63
2020/12/01 18:33:09;;;;;;;3.42;1.70;;;16.60;60.70;;;;;;4935417;29;20020;-63
2020/12/01 18:35:41;;;;;;;7.85;2.25;;;16.60;60.70;;;;;;4935110;29;20038;-63
2020/12/01 18:38:34;;;;;;;6.70;1.90;;;16.60;60.70;;;;;;4935508;29;20030;-64
2020/12/01 18:41:07;;;;;;;5.50;2.22;;;16.60;60.70;;;;;;4932972;29;20457;-64
2020/12/01 18:43:42;;;;;;;3.78;1.85;;;16.60;60.50;;;;;;4937896;29;20044;-63
2020/12/01 18:46:11;;;;;;;5.97;1.85;;;16.70;60.50;;;;;;4954234;29;20027;-64
2020/12/01 18:48:38;;;;;;;7.18;2.35;;;16.70;60.60;;;;;;4954434;29;20038;-64
2020/12/01 18:51:04;;;;;;;6.22;2.00;;;16.70;60.60;;;;;;4954111;29;20023;-62
2020/12/01 18:53:33;;;;;;;3.80;1.55;;;16.80;60.60;;;;;;4954423;28;20057;-64
2020/12/01 18:56:00;;;;;;;4.13;1.75;;;16.80;60.60;;;;;;4954144;29;20110;-63
2020/12/01 18:58:28;;;;;;;4.10;1.63;;;16.80;60.50;;;;;;4954172;29;20036;-64
2020/12/01 19:00:56;;;;;;;6.50;1.50;;;16.80;60.60;;;;;;4953876;29;20030;-64
2020/12/01 19:03:30;;;;;;;5.40;1.50;;;16.90;60.60;;;;;;4936811;29;20039;-64
2020/12/01 19:05:57;;;;;;;4.57;1.77;;;16.80;60.50;;;;;;4954152;29;20031;-64
2020/12/01 19:08:23;;;;;;;4.97;1.65;;;16.90;60.50;;;;;;4954058;29;20444;-63
2020/12/01 19:10:52;;;;;;;4.65;1.65;;;16.90;60.50;;;;;;4956548;28;20023;-64
2020/12/01 19:13:18;;;;;;;4.80;1.75;;;16.90;60.50;;;;;;4958081;29;20030;-64
2020/12/01 19:15:44;;;;;;;4.50;1.60;;;16.90;60.50;;;;;;4958129;29;20031;-63
2020/12/01 19:18:10;;;;;;;4.53;1.40;;;16.90;60.60;;;;;;4940259;29;20026;-62
2020/12/01 19:20:37;;;;;;;3.25;1.55;;;16.90;60.60;;;;;;4972222;28;20549;-63
2020/12/01 19:23:03;;;;;;;5.32;1.75;;;17.00;60.60;;;;;;4940224;29;20039;-63
2020/12/01 19:25:29;;;;;;;3.15;1.83;;;17.00;60.80;;;;;;4957383;29;20034;-63
2020/12/01 19:27:55;;;;;;;4.00;1.58;;;17.00;61.00;;;;;;4957445;29;20035;-62
2020/12/01 19:30:27;;;;;;;4.97;1.50;;;17.10;60.90;;;;;;4957307;29;20058;-63
2020/12/01 19:32:53;;;;;;;3.05;1.63;;;17.10;60.80;;;;;;4956915;29;20031;-63
2020/12/01 19:35:21;;;;;;;3.63;1.42;;;17.10;61.20;;;;;;4957098;29;20023;-63
2020/12/01 19:37:47;;;;;;;2.80;1.33;;;17.10;61.10;;;;;;4957148;29;20033;-65
2020/12/01 19:40:14;;;;;;;3.50;1.50;;;17.10;61.00;;;;;;4972006;28;20016;-66
2020/12/01 19:42:40;;;;;;;3.63;1.77;;;17.20;61.00;;;;;;4957048;29;20438;-64
2020/12/01 19:45:07;;;;;;;3.67;1.65;;;17.20;60.90;;;;;;4956982;29;20035;-64
2020/12/01 19:47:33;;;;;;;3.60;1.35;;;17.20;61.10;;;;;;4935457;29;20413;-64
2020/12/01 19:49:58;;;;;;;2.53;1.45;;;17.20;60.90;;;;;;4957120;29;20114;-64
2020/12/01 19:52:25;;;;;;;4.63;1.77;;;17.20;60.80;;;;;;4957068;28;20027;-64
2020/12/01 19:54:50;;;;;;;5.50;1.83;;;17.20;60.80;;;;;;4956588;28;20054;-63
2020/12/01 19:57:17;;;;;;;4.90;1.55;;;17.20;60.90;;;;;;4956830;29;20039;-64
2020/12/01 19:59:44;;;;;;;2.92;1.10;;;17.10;60.90;;;;;;4957072;29;20111;-65
2020/12/01 20:02:10;;;;;;;3.97;1.30;;;17.10;61.20;;;;;;4939467;29;20034;-65
2020/12/01 20:04:37;;;;;;;3.85;1.30;;;17.10;61.30;;;;;;4956685;29;20043;-64
2020/12/01 20:07:03;;;;;;;5.90;1.23;;;17.10;61.40;;;;;;4956452;29;20027;-64
2020/12/01 20:09:28;;;;;;;4.97;1.70;;;17.10;61.50;;;;;;4955493;29;20034;-65
2020/12/01 20:11:54;;;;;;;4.70;1.40;;;17.10;61.60;;;;;;4956174;29;20023;-63
2020/12/01 20:14:19;;;;;;;4.20;1.42;;;17.10;61.70;;;;;;4956428;29;20038;-64
2020/12/01 20:16:46;;;;;;;3.28;1.40;;;17.10;61.60;;;;;;4956419;29;20175;-64
2020/12/01 20:19:11;;;;;;;3.25;1.23;;;17.00;61.70;;;;;;4956692;29;20030;-64
2020/12/01 20:21:37;;;;;;;3.20;1.65;;;17.00;61.80;;;;;;4939002;29;20019;-64
2020/12/01 20:24:03;;;;;;;3.72;1.60;;;17.00;61.80;;;;;;4956185;29;20047;-63
2020/12/01 20:26:29;;;;;;;4.97;1.70;;;17.00;61.80;;;;;;4956453;29;20078;-62
2020/12/01 20:28:55;;;;;;;3.22;1.48;;;17.00;61.80;;;;;;4956520;29;20036;-65
2020/12/01 20:31:21;;;;;;;3.60;1.40;;;17.00;62.00;;;;;;4956275;29;20107;-69
2020/12/01 20:33:46;;;;;;;4.25;1.60;;;17.00;61.60;;;;;;4956401;29;20102;-65
2020/12/01 20:36:47;;;;;;;3.63;1.40;;;17.00;61.50;;;;;;4956367;29;20465;-67
2020/12/01 20:39:36;;;;;;;8.55;1.58;;;16.90;61.40;;;;;;4956435;29;20110;-64
2020/12/01 20:42:02;;;;;;;4.22;1.50;;;16.90;61.70;;;;;;4956035;29;20031;-64
2020/12/01 20:44:28;;;;;;;4.75;1.50;;;16.90;61.60;;;;;;4956188;29;20155;-67
2020/12/01 20:46:54;;;;;;;4.07;1.50;;;16.80;61.60;;;;;;4956235;29;20027;-68
2020/12/01 20:49:20;;;;;;;5.90;1.30;;;16.90;61.60;;;;;;4955908;29;20019;-67
2020/12/01 20:51:46;;;;;;;6.13;1.30;;;16.70;61.50;;;;;;4956135;29;20027;-66
2020/12/01 20:54:13;;;;;;;2.72;1.20;;;16.80;61.60;;;;;;4956094;28;20480;-66
2020/12/01 20:56:39;;;;;;;6.50;1.63;;;16.80;61.60;;;;;;4955805;29;20023;-65
2020/12/01 20:59:11;;;;;;;2.67;1.10;;;16.70;61.70;;;;;;4955543;29;20027;-65
2020/12/01 21:01:36;;;;;;;2.95;1.25;;;16.70;62.00;;;;;;4955798;29;20023;-66
2020/12/01 21:04:02;;;;;;;3.78;1.40;;;16.70;61.30;;;;;;4955815;29;20433;-66
2020/12/01 21:06:27;;;;;;;4.10;1.58;;;16.70;61.70;;;;;;4955514;29;20020;-65
2020/12/01 21:08:53;;;;;;;3.10;1.20;;;16.60;61.70;;;;;;4955615;29;20098;-66
2020/12/01 21:11:27;;;;;;;3.95;1.33;;;16.60;61.60;;;;;;4970266;28;20434;-66
2020/12/01 21:13:55;;;;;;;4.13;1.70;;;16.60;61.80;;;;;;4955381;29;20046;-66
2020/12/01 21:16:24;;;;;;;4.75;1.20;;;16.60;61.70;;;;;;4938156;29;20026;-69
2020/12/01 21:18:50;;;;;;;5.10;1.33;;;16.50;61.60;;;;;;4954119;29;20082;-66
2020/12/01 21:21:17;;;;;;;2.92;1.10;;;16.50;61.70;;;;;;4970140;28;20027;-67
2020/12/01 21:23:43;;;;;;;2.67;0.98;;;16.50;61.60;;;;;;4970040;28;20035;-67
2020/12/01 21:26:34;;;;;;;3.00;0.80;;;16.50;61.60;;;;;;4955217;29;20438;-66
2020/12/01 21:29:10;;;;;;;2.92;1.38;;;16.50;61.60;;;;;;4955229;29;20470;-67
2020/12/01 21:31:41;;;;;;;5.03;1.38;;;16.40;61.60;;;;;;4937960;29;20027;-66
2020/12/01 21:34:13;;;;;;;1.50;0.98;;;16.40;61.50;;;;;;4954982;28;20428;-66
2020/12/01 21:36:40;;;;;;;3.88;1.40;;;16.40;61.50;;;;;;4955377;29;20022;-66
2020/12/01 21:39:08;;;;;;;2.40;1.17;;;16.40;61.60;;;;;;4955253;29;20059;-64
2020/12/01 21:41:45;;;;;;;3.85;1.17;;;16.40;61.60;;;;;;4955003;29;20436;-64
2020/12/01 21:44:38;;;;;;;4.50;1.27;;;16.40;61.60;;;;;;4955123;29;20445;-64
2020/12/01 21:47:10;;;;;;;5.10;1.45;;;16.40;61.40;;;;;;4954640;28;20058;-64
2020/12/01 21:49:37;;;;;;;3.25;1.13;;;16.50;61.20;;;;;;4937628;29;20062;-64
2020/12/01 21:52:22;;;;;;;2.08;1.17;;;16.50;61.50;;;;;;4954813;29;20028;-65
2020/12/01 21:55:15;;;;;;;6.28;1.00;;;16.60;61.00;;;;;;4954913;28;20044;-64
2020/12/01 21:57:59;;;;;;;6.03;1.50;;;16.60;61.20;;;;;;4955045;29;20118;-64
2020/12/01 22:00:30;;;;;;;3.50;1.55;;;16.60;61.50;;;;;;4954725;29;20027;-64
2020/12/01 22:03:23;;;;;;;2.28;1.15;;;16.60;61.40;;;;;;4969232;28;20031;-64
2020/12/01 22:06:23;;;;;;;2.13;1.02;;;16.60;61.20;;;;;;4954306;29;20035;-65
2020/12/01 22:09:12;;;;;;;2.30;1.20;;;16.70;61.00;;;;;;4937688;29;20031;-65
2020/12/01 22:11:43;;;;;;;5.25;2.00;;;16.60;61.10;;;;;;4968757;28;20043;-64
2020/12/01 22:14:09;;;;;;;4.82;1.20;;;16.60;61.20;;;;;;4954566;29;20023;-64
2020/12/01 22:16:41;;;;;;;5.10;1.27;;;16.50;61.40;;;;;;4954549;29;20034;-65
2020/12/01 22:19:12;;;;;;;3.25;1.10;;;16.50;61.50;;;;;;4954834;29;20023;-65
2020/12/01 22:21:56;;;;;;;2.20;1.20;;;16.40;61.60;;;;;;4954615;29;20035;-65
2020/12/01 22:25:05;;;;;;;2.13;1.00;;;16.40;61.70;;;;;;4954429;29;20042;-65
2020/12/01 22:27:48;;;;;;;2.63;0.80;;;16.30;61.80;;;;;;4954453;29;20019;-65
2020/12/01 22:30:29;;;;;;;3.63;0.98;;;16.30;61.80;;;;;;4954449;29;20106;-65
2020/12/01 22:33:21;;;;;;;1.92;1.33;;;16.30;61.80;;;;;;4954608;29;20067;-65
2020/12/01 22:35:49;;;;;;;3.13;1.13;;;16.20;61.80;;;;;;4954598;29;20030;-65
2020/12/01 22:38:24;;;;;;;4.97;1.27;;;16.20;61.90;;;;;;4954266;29;20493;-65
2020/12/01 22:40:56;;;;;;;1.85;0.93;;;16.50;62.00;;;;;;4954199;29;20469;-65
2020/12/01 22:43:49;;;;;;;1.80;1.10;;;16.20;61.80;;;;;;4954116;29;20035;-65
2020/12/01 22:46:49;;;;;;;2.83;1.10;;;16.20;61.80;;;;;;4957044;28;20062;-65
2020/12/01 22:49:29;;;;;;;2.50;1.20;;;16.20;61.80;;;;;;4958117;29;20027;-65
2020/12/01 22:52:23;;;;;;;3.08;1.10;;;16.10;61.80;;;;;;4958290;29;20118;-65
2020/12/01 22:54:57;;;;;;;2.30;1.10;;;16.20;61.90;;;;;;4958270;28;20051;-65
2020/12/01 22:57:47;;;;;;;1.00;0.90;;;16.10;61.80;;;;;;4957918;29;20545;-65
2020/12/01 23:00:28;;;;;;;1.35;0.93;;;16.20;62.50;;;;;;4957866;29;20027;-65
2020/12/01 23:02:55;;;;;;;3.75;1.25;;;16.10;61.80;;;;;;4958009;29;20384;-65
2020/12/01 23:05:22;;;;;;;2.78;1.02;;;16.10;61.80;;;;;;4958057;29;20381;-65
2020/12/01 23:07:59;;;;;;;2.10;0.93;;;16.10;61.90;;;;;;4957707;29;20470;-65
2020/12/01 23:10:33;;;;;;;3.08;1.38;;;16.10;61.80;;;;;;4957740;29;20046;-65
2020/12/01 23:13:20;;;;;;;1.88;1.20;;;16.10;61.80;;;;;;4958010;29;20029;-65
2020/12/01 23:15:47;;;;;;;2.38;1.08;;;16.00;61.80;;;;;;4957885;29;20148;-65
2020/12/01 23:18:13;;;;;;;1.65;1.10;;;16.10;62.00;;;;;;4957794;29;20031;-65
2020/12/01 23:20:40;;;;;;;1.50;1.15;;;16.10;61.90;;;;;;4957727;29;20466;-66
2020/12/01 23:23:08;;;;;;;4.63;1.10;;;16.00;61.90;;;;;;4957669;29;20039;-65
2020/12/01 23:25:34;;;;;;;1.90;1.00;;;16.00;61.90;;;;;;4957621;29;20107;-65
2020/12/01 23:28:04;;;;;;;2.25;1.00;;;16.00;61.90;;;;;;4957683;29;20023;-65
2020/12/01 23:30:50;;;;;;;1.27;0.82;;;16.00;61.90;;;;;;4957384;29;20046;-65
2020/12/01 23:33:29;;;;;;;1.85;0.98;;;16.00;61.90;;;;;;4957566;29;20030;-65
2020/12/01 23:35:56;;;;;;;2.30;1.00;;;16.00;62.00;;;;;;4957526;29;20027;-65
2020/12/01 23:38:27;;;;;;;2.05;1.00;;;16.00;62.00;;;;;;4957223;29;20111;-65
2020/12/01 23:40:54;;;;;;;1.73;1.00;;;16.00;62.00;;;;;;4957429;29;20122;-65
2020/12/01 23:44:17;;;;;;;1.48;0.90;;;15.90;61.90;;;;;;4957096;29;20047;-66
2020/12/01 23:46:51;;;;;;;1.90;0.82;;;15.90;62.00;;;;;;4916707;29;20032;-65
2020/12/01 23:49:31;;;;;;;1.10;0.82;;;15.90;62.00;;;;;;4916697;29;20044;-65
2020/12/01 23:52:01;;;;;;;1.77;1.00;;;15.90;62.00;;;;;;4946908;29;20082;-65
2020/12/01 23:54:28;;;;;;;3.10;1.20;;;15.90;62.10;;;;;;4957230;28;20047;-65
2020/12/01 23:56:59;;;;;;;2.55;0.98;;;15.90;62.10;;;;;;4956475;28;20157;-65
2020/12/01 23:59:25;;;;;;;1.67;0.98;;;15.80;62.00;;;;;;4956850;29;20609;-65
